sensor_id;sensor_type;location;lat;lon;timestamp;pressure;altitude;pressure_sealevel;temperature
13410;BMP180;6775;49.574;11.170;2023-07-24T00:00:40;96830.75;;;19.87
13410;BMP180;6775;49.574;11.170;2023-07-24T00:03:08;96854.78;;;19.83
13410;BMP180;6775;49.574;11.170;2023-07-24T00:05:38;96904.50;;;19.81
13410;BMP180;6775;49.574;11.170;2023-07-24T00:08:06;96948.63;;;19.83
13410;BMP180;6775;49.574;11.170;2023-07-24T00:10:34;96951.94;;;19.91
13410;BMP180;6775;49.574;11.170;2023-07-24T00:13:02;96961.19;;;19.94
13410;BMP180;6775;49.574;11.170;2023-07-24T00:15:30;96962.91;;;19.87
13410;BMP180;6775;49.574;11.170;2023-07-24T00:17:58;96950.00;;;19.73
13410;BMP180;6775;49.574;11.170;2023-07-24T00:20:26;96952.50;;;19.60
13410;BMP180;6775;49.574;11.170;2023-07-24T00:22:56;96936.78;;;19.47
13410;BMP180;6775;49.574;11.170;2023-07-24T00:25:24;96935.44;;;19.30
13410;BMP180;6775;49.574;11.170;2023-07-24T00:27:52;96939.06;;;19.08
13410;BMP180;6775;49.574;11.170;2023-07-24T00:30:20;96938.66;;;18.90
13410;BMP180;6775;49.574;11.170;2023-07-24T00:32:48;96929.22;;;18.69
13410;BMP180;6775;49.574;11.170;2023-07-24T00:35:16;96940.75;;;18.60
13410;BMP180;6775;49.574;11.170;2023-07-24T00:37:44;96950.47;;;18.51
13410;BMP180;6775;49.574;11.170;2023-07-24T00:40:13;96969.13;;;18.40
13410;BMP180;6775;49.574;11.170;2023-07-24T00:42:47;96981.78;;;18.29
13410;BMP180;6775;49.574;11.170;2023-07-24T00:45:16;96984.75;;;18.26
13410;BMP180;6775;49.574;11.170;2023-07-24T00:47:44;96995.34;;;18.24
13410;BMP180;6775;49.574;11.170;2023-07-24T00:50:12;96982.72;;;18.21
13410;BMP180;6775;49.574;11.170;2023-07-24T00:52:42;96968.97;;;18.13
13410;BMP180;6775;49.574;11.170;2023-07-24T00:55:13;96950.84;;;18.05
13410;BMP180;6775;49.574;11.170;2023-07-24T00:57:44;96940.00;;;18.02
13410;BMP180;6775;49.574;11.170;2023-07-24T01:00:13;96924.50;;;17.94
13410;BMP180;6775;49.574;11.170;2023-07-24T01:02:42;96891.78;;;17.85
13410;BMP180;6775;49.574;11.170;2023-07-24T01:05:13;96900.84;;;17.74
13410;BMP180;6775;49.574;11.170;2023-07-24T01:07:42;96887.94;;;17.67
13410;BMP180;6775;49.574;11.170;2023-07-24T01:10:10;96856.84;;;17.59
13410;BMP180;6775;49.574;11.170;2023-07-24T01:12:51;96850.22;;;17.56
13410;BMP180;6775;49.574;11.170;2023-07-24T01:15:32;96848.09;;;17.60
13410;BMP180;6775;49.574;11.170;2023-07-24T01:18:06;96832.50;;;17.60
13410;BMP180;6775;49.574;11.170;2023-07-24T01:20:38;96816.25;;;17.58
13410;BMP180;6775;49.574;11.170;2023-07-24T01:23:22;96814.81;;;17.55
13410;BMP180;6775;49.574;11.170;2023-07-24T01:25:56;96835.34;;;17.50
13410;BMP180;6775;49.574;11.170;2023-07-24T01:28:25;96841.34;;;17.51
13410;BMP180;6775;49.574;11.170;2023-07-24T01:30:54;96828.63;;;17.56
13410;BMP180;6775;49.574;11.170;2023-07-24T01:33:23;96832.69;;;17.58
13410;BMP180;6775;49.574;11.170;2023-07-24T01:35:57;96866.28;;;17.60
13410;BMP180;6775;49.574;11.170;2023-07-24T01:38:27;96894.22;;;17.58
13410;BMP180;6775;49.574;11.170;2023-07-24T01:40:58;96896.97;;;17.56
13410;BMP180;6775;49.574;11.170;2023-07-24T01:43:29;96888.03;;;17.59
13410;BMP180;6775;49.574;11.170;2023-07-24T01:45:57;96855.41;;;17.56
13410;BMP180;6775;49.574;11.170;2023-07-24T01:48:25;96810.72;;;17.46
13410;BMP180;6775;49.574;11.170;2023-07-24T01:50:53;96783.41;;;17.36
13410;BMP180;6775;49.574;11.170;2023-07-24T01:53:21;96764.41;;;17.21
13410;BMP180;6775;49.574;11.170;2023-07-24T01:55:49;96784.28;;;17.14
13410;BMP180;6775;49.574;11.170;2023-07-24T01:58:18;96771.50;;;17.13
13410;BMP180;6775;49.574;11.170;2023-07-24T02:00:47;96762.16;;;17.18
13410;BMP180;6775;49.574;11.170;2023-07-24T02:03:15;96771.53;;;17.27
13410;BMP180;6775;49.574;11.170;2023-07-24T02:05:49;96785.13;;;17.29
13410;BMP180;6775;49.574;11.170;2023-07-24T02:08:17;96779.13;;;17.28
13410;BMP180;6775;49.574;11.170;2023-07-24T02:10:48;96777.69;;;17.26
13410;BMP180;6775;49.574;11.170;2023-07-24T02:13:18;96779.91;;;17.29
13410;BMP180;6775;49.574;11.170;2023-07-24T02:15:47;96767.56;;;17.31
13410;BMP180;6775;49.574;11.170;2023-07-24T02:18:15;96764.16;;;17.30
13410;BMP180;6775;49.574;11.170;2023-07-24T02:20:49;96771.78;;;17.32
13410;BMP180;6775;49.574;11.170;2023-07-24T02:23:18;96759.16;;;17.29
13410;BMP180;6775;49.574;11.170;2023-07-24T02:25:46;96767.28;;;17.26
13410;BMP180;6775;49.574;11.170;2023-07-24T02:28:19;96769.91;;;17.26
13410;BMP180;6775;49.574;11.170;2023-07-24T02:30:47;96763.44;;;17.22
13410;BMP180;6775;49.574;11.170;2023-07-24T02:33:16;96771.75;;;17.17
13410;BMP180;6775;49.574;11.170;2023-07-24T02:35:44;96766.47;;;17.11
13410;BMP180;6775;49.574;11.170;2023-07-24T02:38:12;96774.09;;;17.13
13410;BMP180;6775;49.574;11.170;2023-07-24T02:40:41;96774.88;;;17.13
13410;BMP180;6775;49.574;11.170;2023-07-24T02:43:09;96770.13;;;17.16
13410;BMP180;6775;49.574;11.170;2023-07-24T02:45:38;96782.13;;;17.17
13410;BMP180;6775;49.574;11.170;2023-07-24T02:48:07;96784.09;;;17.16
13410;BMP180;6775;49.574;11.170;2023-07-24T02:50:35;96788.47;;;17.15
13410;BMP180;6775;49.574;11.170;2023-07-24T02:53:03;96778.44;;;17.12
13410;BMP180;6775;49.574;11.170;2023-07-24T02:55:31;96786.41;;;17.11
13410;BMP180;6775;49.574;11.170;2023-07-24T02:57:59;96784.66;;;17.11
13410;BMP180;6775;49.574;11.170;2023-07-24T03:00:27;96780.44;;;17.10
13410;BMP180;6775;49.574;11.170;2023-07-24T03:02:56;96783.22;;;17.09
13410;BMP180;6775;49.574;11.170;2023-07-24T03:05:25;96794.38;;;17.09
13410;BMP180;6775;49.574;11.170;2023-07-24T03:07:53;96782.41;;;17.08
13410;BMP180;6775;49.574;11.170;2023-07-24T03:10:21;96795.56;;;17.07
13410;BMP180;6775;49.574;11.170;2023-07-24T03:12:49;96794.38;;;17.09
13410;BMP180;6775;49.574;11.170;2023-07-24T03:15:18;96782.84;;;17.12
13410;BMP180;6775;49.574;11.170;2023-07-24T03:17:46;96788.03;;;17.12
13410;BMP180;6775;49.574;11.170;2023-07-24T03:20:18;96783.03;;;17.10
13410;BMP180;6775;49.574;11.170;2023-07-24T03:22:46;96780.00;;;17.07
13410;BMP180;6775;49.574;11.170;2023-07-24T03:25:14;96776.38;;;17.08
13410;BMP180;6775;49.574;11.170;2023-07-24T03:27:42;96775.97;;;17.04
13410;BMP180;6775;49.574;11.170;2023-07-24T03:30:11;96767.88;;;16.99
13410;BMP180;6775;49.574;11.170;2023-07-24T03:32:39;96769.69;;;16.99
13410;BMP180;6775;49.574;11.170;2023-07-24T03:35:08;96761.09;;;16.98
13410;BMP180;6775;49.574;11.170;2023-07-24T03:37:37;96773.06;;;16.99
13410;BMP180;6775;49.574;11.170;2023-07-24T03:40:07;96764.22;;;16.94
13410;BMP180;6775;49.574;11.170;2023-07-24T03:42:35;96763.75;;;16.90
13410;BMP180;6775;49.574;11.170;2023-07-24T03:45:04;96759.38;;;16.91
13410;BMP180;6775;49.574;11.170;2023-07-24T03:47:33;96765.03;;;16.94
13410;BMP180;6775;49.574;11.170;2023-07-24T03:50:01;96756.72;;;16.99
13410;BMP180;6775;49.574;11.170;2023-07-24T03:52:29;96754.53;;;17.02
13410;BMP180;6775;49.574;11.170;2023-07-24T03:54:58;96758.75;;;17.03
13410;BMP180;6775;49.574;11.170;2023-07-24T03:57:26;96764.56;;;17.05
13410;BMP180;6775;49.574;11.170;2023-07-24T03:59:54;96767.81;;;17.07
13410;BMP180;6775;49.574;11.170;2023-07-24T04:02:23;96743.19;;;17.03
13410;BMP180;6775;49.574;11.170;2023-07-24T04:04:51;96762.34;;;17.02
13410;BMP180;6775;49.574;11.170;2023-07-24T04:07:19;96748.56;;;17.02
13410;BMP180;6775;49.574;11.170;2023-07-24T04:09:50;96743.19;;;17.03
13410;BMP180;6775;49.574;11.170;2023-07-24T04:12:19;96739.25;;;17.07
13410;BMP180;6775;49.574;11.170;2023-07-24T04:14:47;96734.69;;;17.09
13410;BMP180;6775;49.574;11.170;2023-07-24T04:17:17;96730.94;;;17.12
13410;BMP180;6775;49.574;11.170;2023-07-24T04:19:45;96729.59;;;17.16
13410;BMP180;6775;49.574;11.170;2023-07-24T04:22:13;96724.81;;;17.19
13410;BMP180;6775;49.574;11.170;2023-07-24T04:24:41;96723.06;;;17.19
13410;BMP180;6775;49.574;11.170;2023-07-24T04:27:09;96713.53;;;17.12
13410;BMP180;6775;49.574;11.170;2023-07-24T04:29:38;96706.84;;;17.03
13410;BMP180;6775;49.574;11.170;2023-07-24T04:32:07;96692.34;;;16.94
13410;BMP180;6775;49.574;11.170;2023-07-24T04:34:35;96687.78;;;16.96
13410;BMP180;6775;49.574;11.170;2023-07-24T04:37:04;96670.63;;;16.95
13410;BMP180;6775;49.574;11.170;2023-07-24T04:39:32;96671.22;;;16.97
13410;BMP180;6775;49.574;11.170;2023-07-24T04:42:01;96672.13;;;17.04
13410;BMP180;6775;49.574;11.170;2023-07-24T04:44:29;96675.06;;;17.16
13410;BMP180;6775;49.574;11.170;2023-07-24T04:47:00;96670.44;;;17.25
13410;BMP180;6775;49.574;11.170;2023-07-24T04:49:29;96677.91;;;17.35
13410;BMP180;6775;49.574;11.170;2023-07-24T04:51:57;96669.06;;;17.44
13410;BMP180;6775;49.574;11.170;2023-07-24T04:54:25;96662.94;;;17.51
13410;BMP180;6775;49.574;11.170;2023-07-24T04:56:53;96662.25;;;17.64
13410;BMP180;6775;49.574;11.170;2023-07-24T04:59:21;96675.81;;;17.80
13410;BMP180;6775;49.574;11.170;2023-07-24T05:01:50;96674.31;;;17.92
13410;BMP180;6775;49.574;11.170;2023-07-24T05:04:20;96668.56;;;17.96
13410;BMP180;6775;49.574;11.170;2023-07-24T05:06:48;96668.19;;;17.99
13410;BMP180;6775;49.574;11.170;2023-07-24T05:09:16;96682.06;;;18.06
13410;BMP180;6775;49.574;11.170;2023-07-24T05:11:43;96702.19;;;18.19
13410;BMP180;6775;49.574;11.170;2023-07-24T05:14:11;96741.25;;;18.25
13410;BMP180;6775;49.574;11.170;2023-07-24T05:16:39;96801.81;;;18.19
13410;BMP180;6775;49.574;11.170;2023-07-24T05:19:07;96844.63;;;17.88
13410;BMP180;6775;49.574;11.170;2023-07-24T05:21:37;96832.91;;;17.77
13410;BMP180;6775;49.574;11.170;2023-07-24T05:24:05;96772.72;;;17.74
13410;BMP180;6775;49.574;11.170;2023-07-24T05:26:33;96747.63;;;17.67
13410;BMP180;6775;49.574;11.170;2023-07-24T05:29:01;96731.16;;;17.60
13410;BMP180;6775;49.574;11.170;2023-07-24T05:31:29;96725.59;;;17.63
13410;BMP180;6775;49.574;11.170;2023-07-24T05:33:57;96721.44;;;17.68
13410;BMP180;6775;49.574;11.170;2023-07-24T05:36:25;96734.88;;;17.71
13410;BMP180;6775;49.574;11.170;2023-07-24T05:38:55;96718.56;;;17.77
13410;BMP180;6775;49.574;11.170;2023-07-24T05:41:24;96713.06;;;17.87
13410;BMP180;6775;49.574;11.170;2023-07-24T05:43:52;96703.56;;;17.94
13410;BMP180;6775;49.574;11.170;2023-07-24T05:46:20;96689.25;;;18.04
13410;BMP180;6775;49.574;11.170;2023-07-24T05:48:49;96698.63;;;18.20
13410;BMP180;6775;49.574;11.170;2023-07-24T05:51:17;96697.91;;;18.32
13410;BMP180;6775;49.574;11.170;2023-07-24T05:53:45;96691.81;;;18.46
13410;BMP180;6775;49.574;11.170;2023-07-24T05:56:14;96699.94;;;18.64
13410;BMP180;6775;49.574;11.170;2023-07-24T05:58:42;96701.06;;;18.82
13410;BMP180;6775;49.574;11.170;2023-07-24T06:01:10;96707.19;;;18.95
13410;BMP180;6775;49.574;11.170;2023-07-24T06:03:38;96710.47;;;19.10
13410;BMP180;6775;49.574;11.170;2023-07-24T06:06:06;96704.75;;;19.21
13410;BMP180;6775;49.574;11.170;2023-07-24T06:08:35;96715.81;;;19.36
13410;BMP180;6775;49.574;11.170;2023-07-24T06:11:03;96713.84;;;19.51
13410;BMP180;6775;49.574;11.170;2023-07-24T06:13:32;96719.13;;;19.64
13410;BMP180;6775;49.574;11.170;2023-07-24T06:16:00;96715.97;;;19.74
13410;BMP180;6775;49.574;11.170;2023-07-24T06:18:28;96710.81;;;19.87
13410;BMP180;6775;49.574;11.170;2023-07-24T06:20:56;96718.47;;;19.95
13410;BMP180;6775;49.574;11.170;2023-07-24T06:23:24;96726.28;;;20.02
13410;BMP180;6775;49.574;11.170;2023-07-24T06:25:52;96733.31;;;20.01
13410;BMP180;6775;49.574;11.170;2023-07-24T06:28:20;96726.47;;;20.00
13410;BMP180;6775;49.574;11.170;2023-07-24T06:30:52;96730.50;;;20.03
13410;BMP180;6775;49.574;11.170;2023-07-24T06:33:20;96718.09;;;20.11
13410;BMP180;6775;49.574;11.170;2023-07-24T06:35:49;96710.44;;;20.16
13410;BMP180;6775;49.574;11.170;2023-07-24T06:38:17;96697.81;;;20.26
13410;BMP180;6775;49.574;11.170;2023-07-24T06:40:48;96698.63;;;20.39
13410;BMP180;6775;49.574;11.170;2023-07-24T06:43:16;96699.44;;;20.53
13410;BMP180;6775;49.574;11.170;2023-07-24T06:45:44;96696.41;;;20.62
13410;BMP180;6775;49.574;11.170;2023-07-24T06:48:13;96691.19;;;20.62
13410;BMP180;6775;49.574;11.170;2023-07-24T06:50:41;96688.78;;;20.61
13410;BMP180;6775;49.574;11.170;2023-07-24T06:53:09;96677.13;;;20.63
13410;BMP180;6775;49.574;11.170;2023-07-24T06:55:37;96668.72;;;20.74
13410;BMP180;6775;49.574;11.170;2023-07-24T06:58:05;96665.06;;;20.88
13410;BMP180;6775;49.574;11.170;2023-07-24T07:00:33;96664.59;;;21.10
13410;BMP180;6775;49.574;11.170;2023-07-24T07:03:01;96663.28;;;21.32
13410;BMP180;6775;49.574;11.170;2023-07-24T07:05:31;96663.16;;;21.21
13410;BMP180;6775;49.574;11.170;2023-07-24T07:07:59;96664.38;;;21.18
13410;BMP180;6775;49.574;11.170;2023-07-24T07:10:27;96662.94;;;21.22
13410;BMP180;6775;49.574;11.170;2023-07-24T07:12:55;96666.16;;;21.24
13410;BMP180;6775;49.574;11.170;2023-07-24T07:15:23;96662.94;;;21.28
13410;BMP180;6775;49.574;11.170;2023-07-24T07:17:51;96662.06;;;21.41
13410;BMP180;6775;49.574;11.170;2023-07-24T07:20:19;96649.16;;;21.46
13410;BMP180;6775;49.574;11.170;2023-07-24T07:22:50;96654.41;;;21.52
13410;BMP180;6775;49.574;11.170;2023-07-24T07:25:18;96650.66;;;21.73
13410;BMP180;6775;49.574;11.170;2023-07-24T07:27:46;96644.19;;;21.75
13410;BMP180;6775;49.574;11.170;2023-07-24T07:30:14;96646.09;;;21.62
13410;BMP180;6775;49.574;11.170;2023-07-24T07:32:43;96647.34;;;21.53
13410;BMP180;6775;49.574;11.170;2023-07-24T07:35:11;96651.59;;;21.47
13410;BMP180;6775;49.574;11.170;2023-07-24T07:37:39;96655.59;;;21.43
13410;BMP180;6775;49.574;11.170;2023-07-24T07:40:10;96653.16;;;21.55
13410;BMP180;6775;49.574;11.170;2023-07-24T07:42:38;96661.63;;;21.57
13410;BMP180;6775;49.574;11.170;2023-07-24T07:45:09;96651.97;;;21.57
13410;BMP180;6775;49.574;11.170;2023-07-24T07:47:37;96663.19;;;21.64
13410;BMP180;6775;49.574;11.170;2023-07-24T07:50:06;96664.16;;;21.70
13410;BMP180;6775;49.574;11.170;2023-07-24T07:52:34;96661.91;;;21.73
13410;BMP180;6775;49.574;11.170;2023-07-24T07:55:02;96661.25;;;21.84
13410;BMP180;6775;49.574;11.170;2023-07-24T07:57:35;96651.13;;;21.94
13410;BMP180;6775;49.574;11.170;2023-07-24T08:00:05;96655.94;;;21.97
13410;BMP180;6775;49.574;11.170;2023-07-24T08:02:33;96661.59;;;21.94
13410;BMP180;6775;49.574;11.170;2023-07-24T08:05:02;96662.25;;;21.89
13410;BMP180;6775;49.574;11.170;2023-07-24T08:07:40;96660.63;;;21.88
13410;BMP180;6775;49.574;11.170;2023-07-24T08:10:08;96665.47;;;21.85
13410;BMP180;6775;49.574;11.170;2023-07-24T08:12:38;96664.66;;;21.84
13410;BMP180;6775;49.574;11.170;2023-07-24T08:15:08;96662.91;;;21.78
13410;BMP180;6775;49.574;11.170;2023-07-24T08:17:36;96654.66;;;21.75
13410;BMP180;6775;49.574;11.170;2023-07-24T08:20:06;96659.53;;;21.72
13410;BMP180;6775;49.574;11.170;2023-07-24T08:22:34;96658.72;;;21.71
13410;BMP180;6775;49.574;11.170;2023-07-24T08:25:02;96654.28;;;21.72
13410;BMP180;6775;49.574;11.170;2023-07-24T08:27:30;96653.28;;;21.73
13410;BMP180;6775;49.574;11.170;2023-07-24T08:30:00;96662.50;;;21.75
13410;BMP180;6775;49.574;11.170;2023-07-24T08:32:28;96647.38;;;21.83
13410;BMP180;6775;49.574;11.170;2023-07-24T08:34:56;96649.88;;;21.96
13410;BMP180;6775;49.574;11.170;2023-07-24T08:37:24;96658.13;;;22.00
13410;BMP180;6775;49.574;11.170;2023-07-24T08:39:52;96655.66;;;22.05
13410;BMP180;6775;49.574;11.170;2023-07-24T08:42:22;96657.22;;;22.12
13410;BMP180;6775;49.574;11.170;2023-07-24T08:44:51;96649.91;;;22.21
13410;BMP180;6775;49.574;11.170;2023-07-24T08:47:23;96647.88;;;22.29
13410;BMP180;6775;49.574;11.170;2023-07-24T08:49:54;96639.75;;;22.37
13410;BMP180;6775;49.574;11.170;2023-07-24T08:52:23;96635.41;;;22.49
13410;BMP180;6775;49.574;11.170;2023-07-24T08:55:05;96625.97;;;22.66
13410;BMP180;6775;49.574;11.170;2023-07-24T08:57:33;96634.94;;;22.76
13410;BMP180;6775;49.574;11.170;2023-07-24T09:00:02;96636.41;;;22.90
13410;BMP180;6775;49.574;11.170;2023-07-24T09:02:34;96635.41;;;23.09
13410;BMP180;6775;49.574;11.170;2023-07-24T09:05:03;96636.44;;;23.26
13410;BMP180;6775;49.574;11.170;2023-07-24T09:07:32;96647.03;;;23.31
13410;BMP180;6775;49.574;11.170;2023-07-24T09:10:00;96635.03;;;23.41
13410;BMP180;6775;49.574;11.170;2023-07-24T09:12:28;96628.19;;;23.40
13410;BMP180;6775;49.574;11.170;2023-07-24T09:15:03;96623.06;;;23.45
13410;BMP180;6775;49.574;11.170;2023-07-24T09:17:34;96620.00;;;23.48
13410;BMP180;6775;49.574;11.170;2023-07-24T09:20:03;96609.94;;;23.45
13410;BMP180;6775;49.574;11.170;2023-07-24T09:22:31;96605.75;;;23.44
13410;BMP180;6775;49.574;11.170;2023-07-24T09:25:00;96599.91;;;23.42
13410;BMP180;6775;49.574;11.170;2023-07-24T09:27:30;96595.53;;;23.54
13410;BMP180;6775;49.574;11.170;2023-07-24T09:30:00;96591.84;;;23.73
13410;BMP180;6775;49.574;11.170;2023-07-24T09:32:28;96592.69;;;23.96
13410;BMP180;6775;49.574;11.170;2023-07-24T09:34:59;96604.66;;;24.03
13410;BMP180;6775;49.574;11.170;2023-07-24T09:37:33;96610.28;;;24.07
13410;BMP180;6775;49.574;11.170;2023-07-24T09:40:04;96608.66;;;23.94
13410;BMP180;6775;49.574;11.170;2023-07-24T09:42:35;96599.75;;;23.84
13410;BMP180;6775;49.574;11.170;2023-07-24T09:45:24;96603.91;;;23.74
13410;BMP180;6775;49.574;11.170;2023-07-24T09:47:54;96600.28;;;23.75
13410;BMP180;6775;49.574;11.170;2023-07-24T09:50:34;96599.53;;;23.85
13410;BMP180;6775;49.574;11.170;2023-07-24T09:53:03;96609.00;;;24.09
13410;BMP180;6775;49.574;11.170;2023-07-24T09:55:40;96616.13;;;24.20
13410;BMP180;6775;49.574;11.170;2023-07-24T09:58:11;96625.72;;;24.26
13410;BMP180;6775;49.574;11.170;2023-07-24T10:00:40;96624.91;;;24.26
13410;BMP180;6775;49.574;11.170;2023-07-24T10:03:09;96625.38;;;24.23
13410;BMP180;6775;49.574;11.170;2023-07-24T10:05:39;96616.81;;;24.27
13410;BMP180;6775;49.574;11.170;2023-07-24T10:08:07;96612.72;;;24.31
13410;BMP180;6775;49.574;11.170;2023-07-24T10:10:36;96605.41;;;24.33
13410;BMP180;6775;49.574;11.170;2023-07-24T10:13:04;96593.09;;;24.45
13410;BMP180;6775;49.574;11.170;2023-07-24T10:15:32;96583.72;;;24.49
13410;BMP180;6775;49.574;11.170;2023-07-24T10:18:03;96573.91;;;24.44
13410;BMP180;6775;49.574;11.170;2023-07-24T10:20:35;96560.91;;;24.38
13410;BMP180;6775;49.574;11.170;2023-07-24T10:23:08;96579.03;;;24.28
13410;BMP180;6775;49.574;11.170;2023-07-24T10:25:39;96578.22;;;24.16
13410;BMP180;6775;49.574;11.170;2023-07-24T10:28:10;96583.13;;;24.01
13410;BMP180;6775;49.574;11.170;2023-07-24T10:30:40;96602.25;;;23.90
13410;BMP180;6775;49.574;11.170;2023-07-24T10:33:10;96613.88;;;23.83
13410;BMP180;6775;49.574;11.170;2023-07-24T10:35:42;96610.31;;;23.78
13410;BMP180;6775;49.574;11.170;2023-07-24T10:38:13;96609.16;;;23.74
13410;BMP180;6775;49.574;11.170;2023-07-24T10:40:44;96618.88;;;23.73
13410;BMP180;6775;49.574;11.170;2023-07-24T10:43:17;96618.63;;;23.75
13410;BMP180;6775;49.574;11.170;2023-07-24T10:45:51;96633.81;;;23.73
13410;BMP180;6775;49.574;11.170;2023-07-24T10:48:24;96631.88;;;23.68
13410;BMP180;6775;49.574;11.170;2023-07-24T10:50:52;96635.53;;;23.61
13410;BMP180;6775;49.574;11.170;2023-07-24T10:53:23;96632.25;;;23.54
13410;BMP180;6775;49.574;11.170;2023-07-24T10:55:53;96634.94;;;23.47
13410;BMP180;6775;49.574;11.170;2023-07-24T10:58:25;96640.72;;;23.38
13410;BMP180;6775;49.574;11.170;2023-07-24T11:00:53;96628.69;;;23.31
13410;BMP180;6775;49.574;11.170;2023-07-24T11:03:23;96627.56;;;23.27
13410;BMP180;6775;49.574;11.170;2023-07-24T11:05:52;96627.19;;;23.23
13410;BMP180;6775;49.574;11.170;2023-07-24T11:08:22;96636.16;;;23.16
13410;BMP180;6775;49.574;11.170;2023-07-24T11:10:52;96642.03;;;23.11
13410;BMP180;6775;49.574;11.170;2023-07-24T11:13:22;96638.69;;;23.04
13410;BMP180;6775;49.574;11.170;2023-07-24T11:15:52;96640.97;;;23.01
13410;BMP180;6775;49.574;11.170;2023-07-24T11:18:22;96644.81;;;22.98
13410;BMP180;6775;49.574;11.170;2023-07-24T11:21:12;96649.28;;;22.91
13410;BMP180;6775;49.574;11.170;2023-07-24T11:23:48;96639.69;;;22.85
13410;BMP180;6775;49.574;11.170;2023-07-24T11:26:19;96649.44;;;22.79
13410;BMP180;6775;49.574;11.170;2023-07-24T11:28:48;96652.91;;;22.73
13410;BMP180;6775;49.574;11.170;2023-07-24T11:31:17;96648.34;;;22.68
13410;BMP180;6775;49.574;11.170;2023-07-24T11:33:49;96645.31;;;22.65
13410;BMP180;6775;49.574;11.170;2023-07-24T11:36:18;96656.66;;;22.59
13410;BMP180;6775;49.574;11.170;2023-07-24T11:38:48;96658.09;;;22.55
13410;BMP180;6775;49.574;11.170;2023-07-24T11:41:17;96649.69;;;22.53
13410;BMP180;6775;49.574;11.170;2023-07-24T11:43:46;96653.09;;;22.53
13410;BMP180;6775;49.574;11.170;2023-07-24T11:46:23;96651.72;;;22.51
13410;BMP180;6775;49.574;11.170;2023-07-24T11:48:52;96637.16;;;22.55
13410;BMP180;6775;49.574;11.170;2023-07-24T11:51:25;96624.06;;;22.55
13410;BMP180;6775;49.574;11.170;2023-07-24T11:54:06;96621.88;;;22.52
13410;BMP180;6775;49.574;11.170;2023-07-24T11:56:35;96626.69;;;22.55
13410;BMP180;6775;49.574;11.170;2023-07-24T11:59:10;96628.22;;;22.62
13410;BMP180;6775;49.574;11.170;2023-07-24T12:01:38;96618.91;;;22.66
13410;BMP180;6775;49.574;11.170;2023-07-24T12:04:07;96611.22;;;22.71
13410;BMP180;6775;49.574;11.170;2023-07-24T12:06:37;96620.84;;;22.77
13410;BMP180;6775;49.574;11.170;2023-07-24T12:09:07;96618.72;;;22.85
13410;BMP180;6775;49.574;11.170;2023-07-24T12:11:40;96618.41;;;22.93
13410;BMP180;6775;49.574;11.170;2023-07-24T12:14:13;96607.69;;;23.01
13410;BMP180;6775;49.574;11.170;2023-07-24T12:16:42;96603.19;;;23.08
13410;BMP180;6775;49.574;11.170;2023-07-24T12:19:10;96582.50;;;23.18
13410;BMP180;6775;49.574;11.170;2023-07-24T12:21:38;96581.16;;;23.27
13410;BMP180;6775;49.574;11.170;2023-07-24T12:24:08;96574.56;;;23.36
13410;BMP180;6775;49.574;11.170;2023-07-24T12:26:36;96571.66;;;23.44
13410;BMP180;6775;49.574;11.170;2023-07-24T12:29:04;96570.53;;;23.51
13410;BMP180;6775;49.574;11.170;2023-07-24T12:31:32;96570.31;;;23.53
13410;BMP180;6775;49.574;11.170;2023-07-24T12:34:00;96558.53;;;23.44
13410;BMP180;6775;49.574;11.170;2023-07-24T12:36:28;96553.53;;;23.42
13410;BMP180;6775;49.574;11.170;2023-07-24T12:38:56;96552.72;;;23.42
13410;BMP180;6775;49.574;11.170;2023-07-24T12:41:25;96552.94;;;23.40
13410;BMP180;6775;49.574;11.170;2023-07-24T12:43:54;96537.31;;;23.34
13410;BMP180;6775;49.574;11.170;2023-07-24T12:46:22;96541.63;;;23.29
13410;BMP180;6775;49.574;11.170;2023-07-24T12:48:50;96541.47;;;23.24
13410;BMP180;6775;49.574;11.170;2023-07-24T12:51:18;96537.94;;;23.18
13410;BMP180;6775;49.574;11.170;2023-07-24T12:53:46;96546.09;;;23.10
13410;BMP180;6775;49.574;11.170;2023-07-24T12:56:35;96534.78;;;22.98
13410;BMP180;6775;49.574;11.170;2023-07-24T12:59:03;96548.13;;;22.90
13410;BMP180;6775;49.574;11.170;2023-07-24T13:01:31;96545.38;;;22.85
13410;BMP180;6775;49.574;11.170;2023-07-24T13:03:59;96545.00;;;22.82
13410;BMP180;6775;49.574;11.170;2023-07-24T13:06:27;96543.75;;;22.84
13410;BMP180;6775;49.574;11.170;2023-07-24T13:08:56;96539.53;;;22.83
13410;BMP180;6775;49.574;11.170;2023-07-24T13:11:24;96528.22;;;22.89
13410;BMP180;6775;49.574;11.170;2023-07-24T13:13:54;96530.81;;;23.07
13410;BMP180;6775;49.574;11.170;2023-07-24T13:16:22;96534.50;;;23.47
13410;BMP180;6775;49.574;11.170;2023-07-24T13:18:51;96534.25;;;23.89
13410;BMP180;6775;49.574;11.170;2023-07-24T13:21:18;96533.50;;;24.11
13410;BMP180;6775;49.574;11.170;2023-07-24T13:23:46;96530.72;;;24.29
13410;BMP180;6775;49.574;11.170;2023-07-24T13:26:15;96531.66;;;24.46
13410;BMP180;6775;49.574;11.170;2023-07-24T13:28:44;96495.78;;;24.63
13410;BMP180;6775;49.574;11.170;2023-07-24T13:31:15;96486.34;;;24.89
13410;BMP180;6775;49.574;11.170;2023-07-24T13:33:43;96478.06;;;25.09
13410;BMP180;6775;49.574;11.170;2023-07-24T13:36:11;96494.31;;;25.06
13410;BMP180;6775;49.574;11.170;2023-07-24T13:38:40;96486.28;;;25.12
13410;BMP180;6775;49.574;11.170;2023-07-24T13:41:08;96479.31;;;25.34
13410;BMP180;6775;49.574;11.170;2023-07-24T13:43:36;96469.81;;;25.33
13410;BMP180;6775;49.574;11.170;2023-07-24T13:46:04;96458.75;;;25.31
13410;BMP180;6775;49.574;11.170;2023-07-24T13:48:35;96452.69;;;25.47
13410;BMP180;6775;49.574;11.170;2023-07-24T13:51:03;96449.38;;;25.68
13410;BMP180;6775;49.574;11.170;2023-07-24T13:53:31;96447.13;;;25.76
13410;BMP180;6775;49.574;11.170;2023-07-24T13:55:59;96451.44;;;25.82
13410;BMP180;6775;49.574;11.170;2023-07-24T13:58:27;96450.19;;;25.68
13410;BMP180;6775;49.574;11.170;2023-07-24T14:00:55;96431.53;;;25.09
13410;BMP180;6775;49.574;11.170;2023-07-24T14:03:23;96429.75;;;24.98
13410;BMP180;6775;49.574;11.170;2023-07-24T14:05:57;96435.84;;;25.15
13410;BMP180;6775;49.574;11.170;2023-07-24T14:08:25;96429.41;;;25.39
13410;BMP180;6775;49.574;11.170;2023-07-24T14:10:53;96427.03;;;25.54
13410;BMP180;6775;49.574;11.170;2023-07-24T14:13:21;96418.34;;;25.53
13410;BMP180;6775;49.574;11.170;2023-07-24T14:15:49;96432.22;;;25.49
13410;BMP180;6775;49.574;11.170;2023-07-24T14:18:17;96421.94;;;25.47
13410;BMP180;6775;49.574;11.170;2023-07-24T14:20:45;96424.91;;;25.51